THY981 LTAC-UGTB
Flight info
| Callsign | THY981 |
|---|---|
| Flight time | 1h 24m |
| Altitude | 37000 |
| Route | ILHAN UW71 ERGUN DCT ERKOS UW71 TBN UR317 REBLO DCT TISOT |
| Aircraft | B738/M-SDE2E3FGHIRWXY/LB1 |
Departure
| Time | 2026-05-05 04:50 |
|---|---|
| Airport | Esenboğa International Airport (LTAC) |
Arrival
| Time | 2026-05-05 06:15 |
|---|---|
| Airport | Tbilisi International Airport (UGTB) |
| Time | Latitude | Longitude | Altitude | Speed | Heading |
|---|---|---|---|---|---|
| 2026-05-05 04:33 | 40.11425 | 32.98873 | 3112 ft | 0 kts | 126° |
| 2026-05-05 04:42 | 40.11426 | 32.98871 | 3112 ft | 0 kts | 126° |
| 2026-05-05 04:42 | 40.11427 | 32.98870 | 3112 ft | 0 kts | 126° |
| 2026-05-05 04:42 | 40.11428 | 32.98869 | 3112 ft | 0 kts | 126° |
| 2026-05-05 04:43 | 40.11428 | 32.98867 | 3112 ft | 0 kts | 126° |
| 2026-05-05 04:43 | 40.11435 | 32.98853 | 3112 ft | 2 kts | 116° |
| 2026-05-05 04:43 | 40.11441 | 32.98833 | 3112 ft | 2 kts | 104° |
| 2026-05-05 04:43 | 40.11443 | 32.98812 | 3112 ft | 2 kts | 81° |
| 2026-05-05 04:44 | 40.11438 | 32.98792 | 3112 ft | 2 kts | 56° |
| 2026-05-05 04:44 | 40.11427 | 32.98776 | 3112 ft | 2 kts | 38° |
| 2026-05-05 04:44 | 40.11423 | 32.98772 | 3112 ft | 0 kts | 36° |
| 2026-05-05 04:46 | 40.11424 | 32.98773 | 3112 ft | 0 kts | 36° |
| 2026-05-05 04:46 | 40.11436 | 32.98785 | 3112 ft | 6 kts | 37° |
| 2026-05-05 04:47 | 40.11488 | 32.98835 | 3112 ft | 13 kts | 38° |
| 2026-05-05 04:47 | 40.11549 | 32.98900 | 3112 ft | 8 kts | 41° |
| 2026-05-05 04:47 | 40.11595 | 32.98942 | 3112 ft | 2 kts | 12° |
| 2026-05-05 04:47 | 40.11632 | 32.98927 | 3112 ft | 9 kts | 322° |
| 2026-05-05 04:48 | 40.11683 | 32.98844 | 3112 ft | 9 kts | 305° |
| 2026-05-05 04:48 | 40.11720 | 32.98776 | 3111 ft | 11 kts | 306° |
| 2026-05-05 04:48 | 40.11777 | 32.98676 | 3112 ft | 17 kts | 307° |
| 2026-05-05 04:48 | 40.11835 | 32.98575 | 3112 ft | 11 kts | 307° |
| 2026-05-05 04:49 | 40.11890 | 32.98511 | 3112 ft | 9 kts | 342° |
| 2026-05-05 04:49 | 40.11951 | 32.98532 | 3112 ft | 9 kts | 33° |
| 2026-05-05 04:49 | 40.11953 | 32.98533 | 3112 ft | 0 kts | 33° |
| 2026-05-05 04:49 | 40.11965 | 32.98544 | 3112 ft | 13 kts | 34° |
| 2026-05-05 04:50 | 40.12290 | 32.98848 | 3116 ft | 100 kts | 37° |
| 2026-05-05 04:50 | 40.13045 | 32.99576 | 3127 ft | 171 kts | 37° |
| 2026-05-05 04:50 | 40.14092 | 33.00597 | 3761 ft | 197 kts | 37° |
| 2026-05-05 04:50 | 40.15245 | 33.01747 | 4597 ft | 218 kts | 37° |
| 2026-05-05 04:51 | 40.16413 | 33.03002 | 5697 ft | 218 kts | 37° |
| 2026-05-05 04:51 | 40.17627 | 33.04306 | 6235 ft | 232 kts | 37° |
| 2026-05-05 04:51 | 40.18900 | 33.05664 | 6880 ft | 240 kts | 37° |
| 2026-05-05 04:51 | 40.20200 | 33.07048 | 7679 ft | 244 kts | 38° |
| 2026-05-05 04:52 | 40.21514 | 33.08466 | 8627 ft | 245 kts | 41° |
| 2026-05-05 04:52 | 40.22553 | 33.10286 | 9287 ft | 261 kts | 61° |
| 2026-05-05 04:52 | 40.23379 | 33.12493 | 9877 ft | 275 kts | 63° |
| 2026-05-05 04:52 | 40.24206 | 33.14772 | 10419 ft | 291 kts | 63° |
| 2026-05-05 04:53 | 40.25112 | 33.17279 | 10620 ft | 318 kts | 64° |
| 2026-05-05 04:53 | 40.26094 | 33.19987 | 10908 ft | 338 kts | 64° |
| 2026-05-05 04:53 | 40.27116 | 33.22804 | 11614 ft | 344 kts | 63° |
| 2026-05-05 04:53 | 40.28151 | 33.25648 | 12481 ft | 347 kts | 64° |
| 2026-05-05 04:54 | 40.29199 | 33.28525 | 13318 ft | 350 kts | 64° |
| 2026-05-05 04:54 | 40.30244 | 33.31389 | 14094 ft | 353 kts | 64° |
| 2026-05-05 04:54 | 40.31311 | 33.34313 | 14810 ft | 357 kts | 64° |
| 2026-05-05 04:54 | 40.32388 | 33.37267 | 15493 ft | 361 kts | 64° |
| 2026-05-05 04:55 | 40.33481 | 33.40267 | 16196 ft | 365 kts | 63° |
| 2026-05-05 04:55 | 40.34583 | 33.43293 | 16886 ft | 369 kts | 63° |
| 2026-05-05 04:55 | 40.35685 | 33.46321 | 17578 ft | 373 kts | 63° |
| 2026-05-05 04:55 | 40.36809 | 33.49414 | 18247 ft | 377 kts | 63° |
| 2026-05-05 04:56 | 40.37946 | 33.52546 | 18842 ft | 381 kts | 63° |
| 2026-05-05 04:56 | 40.39088 | 33.55697 | 19438 ft | 384 kts | 63° |
| 2026-05-05 04:56 | 40.40241 | 33.58883 | 20022 ft | 387 kts | 63° |
| 2026-05-05 04:56 | 40.41403 | 33.62095 | 20606 ft | 390 kts | 63° |
| 2026-05-05 04:57 | 40.42556 | 33.65284 | 21167 ft | 394 kts | 63° |
| 2026-05-05 04:57 | 40.43737 | 33.68554 | 21756 ft | 397 kts | 63° |
| 2026-05-05 04:57 | 40.44885 | 33.71880 | 22295 ft | 401 kts | 67° |
| 2026-05-05 04:57 | 40.45811 | 33.75356 | 22840 ft | 405 kts | 71° |
| 2026-05-05 04:58 | 40.46640 | 33.78875 | 23365 ft | 408 kts | 71° |
| 2026-05-05 04:58 | 40.47476 | 33.82460 | 23828 ft | 411 kts | 71° |
| 2026-05-05 04:58 | 40.48343 | 33.86065 | 24266 ft | 413 kts | 70° |
| 2026-05-05 04:58 | 40.49226 | 33.89625 | 24695 ft | 416 kts | 70° |
| 2026-05-05 04:59 | 40.50133 | 33.93245 | 25153 ft | 418 kts | 70° |
| 2026-05-05 04:59 | 40.51113 | 33.96855 | 25562 ft | 421 kts | 67° |
| 2026-05-05 04:59 | 40.52199 | 34.00452 | 25979 ft | 423 kts | 66° |
| 2026-05-05 04:59 | 40.53323 | 34.04035 | 26409 ft | 424 kts | 66° |
| 2026-05-05 05:00 | 40.54448 | 34.07601 | 26818 ft | 426 kts | 66° |
| 2026-05-05 05:00 | 40.55583 | 34.11221 | 27222 ft | 428 kts | 66° |
| 2026-05-05 05:00 | 40.56714 | 34.14863 | 27609 ft | 431 kts | 66° |
| 2026-05-05 05:00 | 40.57846 | 34.18536 | 27977 ft | 433 kts | 66° |
| 2026-05-05 05:01 | 40.58977 | 34.22226 | 28347 ft | 435 kts | 66° |
| 2026-05-05 05:01 | 40.60096 | 34.25892 | 28693 ft | 437 kts | 66° |
| 2026-05-05 05:01 | 40.61237 | 34.29635 | 29061 ft | 439 kts | 66° |
| 2026-05-05 05:01 | 40.62374 | 34.33377 | 29428 ft | 441 kts | 66° |
| 2026-05-05 05:02 | 40.63513 | 34.37127 | 29901 ft | 439 kts | 66° |
| 2026-05-05 05:02 | 40.64631 | 34.40814 | 30360 ft | 437 kts | 66° |
| 2026-05-05 05:02 | 40.65755 | 34.44526 | 30708 ft | 437 kts | 66° |
| 2026-05-05 05:02 | 40.66887 | 34.48267 | 30973 ft | 439 kts | 66° |
| 2026-05-05 05:03 | 40.68024 | 34.52026 | 31289 ft | 439 kts | 66° |
| 2026-05-05 05:03 | 40.69139 | 34.55723 | 31625 ft | 439 kts | 67° |
| 2026-05-05 05:03 | 40.70268 | 34.59470 | 31928 ft | 440 kts | 67° |
| 2026-05-05 05:03 | 40.71397 | 34.63223 | 32226 ft | 440 kts | 67° |
| 2026-05-05 05:04 | 40.72530 | 34.66993 | 32507 ft | 441 kts | 67° |
| 2026-05-05 05:04 | 40.73660 | 34.70757 | 32846 ft | 441 kts | 67° |
| 2026-05-05 05:04 | 40.74716 | 34.74569 | 33152 ft | 442 kts | 72° |
| 2026-05-05 05:04 | 40.75389 | 34.78493 | 33409 ft | 445 kts | 77° |
| 2026-05-05 05:05 | 40.75965 | 34.82501 | 33711 ft | 445 kts | 78° |
| 2026-05-05 05:05 | 40.76524 | 34.86523 | 34002 ft | 445 kts | 78° |
| 2026-05-05 05:05 | 40.77082 | 34.90542 | 34238 ft | 446 kts | 78° |
| 2026-05-05 05:05 | 40.77650 | 34.94589 | 34456 ft | 447 kts | 78° |
| 2026-05-05 05:06 | 40.78223 | 34.98624 | 34685 ft | 448 kts | 78° |
| 2026-05-05 05:06 | 40.78802 | 35.02668 | 34915 ft | 448 kts | 78° |
| 2026-05-05 05:06 | 40.79377 | 35.06668 | 35128 ft | 449 kts | 78° |
| 2026-05-05 05:06 | 40.79961 | 35.10716 | 35338 ft | 450 kts | 78° |
| 2026-05-05 05:07 | 40.80545 | 35.14774 | 35539 ft | 451 kts | 78° |
| 2026-05-05 05:07 | 40.81715 | 35.22935 | 35929 ft | 453 kts | 78° |
| 2026-05-05 05:07 | 40.82299 | 35.27025 | 36187 ft | 453 kts | 78° |
| 2026-05-05 05:08 | 40.82879 | 35.31101 | 36464 ft | 452 kts | 78° |
| 2026-05-05 05:08 | 40.83462 | 35.35209 | 36623 ft | 454 kts | 79° |
| 2026-05-05 05:08 | 40.84045 | 35.39327 | 36820 ft | 455 kts | 79° |
| 2026-05-05 05:08 | 40.84626 | 35.43443 | 36933 ft | 457 kts | 79° |
| 2026-05-05 05:09 | 40.85210 | 35.47595 | 36928 ft | 459 kts | 79° |
| 2026-05-05 05:09 | 40.86363 | 35.55817 | 36932 ft | 456 kts | 79° |
| 2026-05-05 05:10 | 40.87510 | 35.64048 | 36915 ft | 452 kts | 79° |
| 2026-05-05 05:10 | 40.88636 | 35.72167 | 36931 ft | 453 kts | 79° |
| 2026-05-05 05:11 | 40.89780 | 35.80460 | 36950 ft | 462 kts | 79° |
| 2026-05-05 05:11 | 40.90930 | 35.88843 | 36939 ft | 464 kts | 79° |
| 2026-05-05 05:12 | 40.92077 | 35.97250 | 36930 ft | 465 kts | 80° |
| 2026-05-05 05:12 | 40.93214 | 36.05635 | 36941 ft | 465 kts | 80° |
| 2026-05-05 05:13 | 40.94350 | 36.14056 | 36940 ft | 464 kts | 80° |
| 2026-05-05 05:13 | 40.95477 | 36.22461 | 36950 ft | 462 kts | 81° |
| 2026-05-05 05:14 | 40.96586 | 36.30786 | 36959 ft | 461 kts | 81° |
| 2026-05-05 05:14 | 40.97691 | 36.39126 | 36957 ft | 461 kts | 81° |
| 2026-05-05 05:15 | 40.98795 | 36.47501 | 36968 ft | 461 kts | 81° |
| 2026-05-05 05:15 | 40.99893 | 36.55880 | 36955 ft | 460 kts | 81° |
| 2026-05-05 05:16 | 41.00973 | 36.64173 | 36985 ft | 459 kts | 81° |
| 2026-05-05 05:16 | 41.02053 | 36.72516 | 36966 ft | 460 kts | 81° |
| 2026-05-05 05:17 | 41.03129 | 36.80878 | 36986 ft | 460 kts | 82° |
| 2026-05-05 05:17 | 41.04196 | 36.89219 | 36961 ft | 461 kts | 81° |
| 2026-05-05 05:18 | 41.05264 | 36.97616 | 36965 ft | 462 kts | 81° |
| 2026-05-05 05:18 | 41.06322 | 37.05982 | 36987 ft | 462 kts | 81° |
| 2026-05-05 05:19 | 41.07203 | 37.12992 | 36970 ft | 463 kts | 82° |
| 2026-05-05 05:19 | 41.08260 | 37.21448 | 36986 ft | 465 kts | 82° |
| 2026-05-05 05:20 | 41.09311 | 37.29906 | 36974 ft | 468 kts | 82° |
| 2026-05-05 05:20 | 41.10367 | 37.38462 | 36981 ft | 470 kts | 82° |
| 2026-05-05 05:21 | 41.11411 | 37.46971 | 36984 ft | 467 kts | 82° |
| 2026-05-05 05:21 | 41.12447 | 37.55458 | 36986 ft | 464 kts | 82° |
| 2026-05-05 05:22 | 41.13469 | 37.63898 | 36983 ft | 461 kts | 82° |
| 2026-05-05 05:22 | 41.14478 | 37.72286 | 36975 ft | 459 kts | 82° |
| 2026-05-05 05:23 | 41.15477 | 37.80629 | 36977 ft | 458 kts | 83° |
| 2026-05-05 05:23 | 41.16312 | 37.89016 | 36973 ft | 457 kts | 90° |
| 2026-05-05 05:24 | 41.15800 | 37.97402 | 36976 ft | 457 kts | 98° |
| 2026-05-05 05:24 | 41.15045 | 38.05787 | 36975 ft | 459 kts | 98° |
| 2026-05-05 05:25 | 41.14343 | 38.14234 | 36962 ft | 462 kts | 98° |
| 2026-05-05 05:25 | 41.13664 | 38.22721 | 36975 ft | 464 kts | 98° |
| 2026-05-05 05:26 | 41.12965 | 38.31276 | 36972 ft | 467 kts | 98° |
| 2026-05-05 05:26 | 41.12250 | 38.39857 | 36971 ft | 468 kts | 98° |
| 2026-05-05 05:27 | 41.11533 | 38.48392 | 36971 ft | 468 kts | 98° |
| 2026-05-05 05:27 | 41.10446 | 38.61239 | 36974 ft | 467 kts | 98° |
| 2026-05-05 05:28 | 41.09729 | 38.69826 | 36964 ft | 467 kts | 98° |
| 2026-05-05 05:28 | 41.08974 | 38.78395 | 36970 ft | 466 kts | 99° |
| 2026-05-05 05:29 | 41.08188 | 38.86891 | 36962 ft | 465 kts | 99° |
| 2026-05-05 05:29 | 41.07400 | 38.95412 | 36963 ft | 465 kts | 99° |
| 2026-05-05 05:30 | 41.06614 | 39.03906 | 36968 ft | 464 kts | 99° |
| 2026-05-05 05:30 | 41.05828 | 39.12340 | 36970 ft | 464 kts | 99° |
| 2026-05-05 05:31 | 41.05041 | 39.20819 | 36972 ft | 464 kts | 99° |
| 2026-05-05 05:31 | 41.04260 | 39.29317 | 36963 ft | 464 kts | 99° |
| 2026-05-05 05:32 | 41.03473 | 39.37814 | 36970 ft | 465 kts | 99° |
| 2026-05-05 05:32 | 41.02679 | 39.46304 | 36976 ft | 465 kts | 99° |
| 2026-05-05 05:33 | 41.01875 | 39.54816 | 36969 ft | 466 kts | 99° |
| 2026-05-05 05:33 | 41.01064 | 39.63342 | 36943 ft | 467 kts | 100° |
| 2026-05-05 05:34 | 41.00253 | 39.71812 | 36959 ft | 467 kts | 100° |
| 2026-05-05 05:34 | 40.99446 | 39.80352 | 36968 ft | 467 kts | 98° |
| 2026-05-05 05:35 | 40.99165 | 39.88931 | 36973 ft | 468 kts | 94° |
| 2026-05-05 05:35 | 40.99050 | 39.97554 | 36965 ft | 468 kts | 94° |
| 2026-05-05 05:36 | 40.98870 | 40.06141 | 36954 ft | 468 kts | 95° |
| 2026-05-05 05:36 | 40.98648 | 40.14764 | 36956 ft | 468 kts | 95° |
| 2026-05-05 05:37 | 40.98421 | 40.23376 | 36959 ft | 468 kts | 95° |
| 2026-05-05 05:37 | 40.98190 | 40.31947 | 36952 ft | 468 kts | 95° |
| 2026-05-05 05:38 | 40.97952 | 40.40573 | 36960 ft | 469 kts | 95° |
| 2026-05-05 05:38 | 40.97704 | 40.49219 | 36936 ft | 469 kts | 95° |
| 2026-05-05 05:39 | 40.97456 | 40.57815 | 36962 ft | 469 kts | 95° |
| 2026-05-05 05:39 | 40.97200 | 40.66469 | 36952 ft | 470 kts | 95° |
| 2026-05-05 05:40 | 40.96937 | 40.75092 | 36955 ft | 471 kts | 95° |
| 2026-05-05 05:40 | 40.96667 | 40.83775 | 36958 ft | 471 kts | 95° |
| 2026-05-05 05:41 | 40.96390 | 40.92394 | 36962 ft | 470 kts | 96° |
| 2026-05-05 05:41 | 40.96101 | 41.01067 | 36952 ft | 471 kts | 96° |
| 2026-05-05 05:42 | 40.95803 | 41.09751 | 36945 ft | 472 kts | 96° |
| 2026-05-05 05:42 | 40.95503 | 41.18380 | 36931 ft | 473 kts | 96° |
| 2026-05-05 05:43 | 40.95194 | 41.27066 | 36902 ft | 473 kts | 96° |
| 2026-05-05 05:43 | 40.94878 | 41.35796 | 36952 ft | 475 kts | 96° |
| 2026-05-05 05:44 | 40.94554 | 41.44518 | 36914 ft | 475 kts | 96° |
| 2026-05-05 05:44 | 40.94224 | 41.53275 | 36917 ft | 475 kts | 96° |
| 2026-05-05 05:45 | 40.93889 | 41.61973 | 36901 ft | 476 kts | 96° |
| 2026-05-05 05:45 | 40.93545 | 41.70737 | 36893 ft | 476 kts | 96° |
| 2026-05-05 05:46 | 40.93196 | 41.79454 | 36908 ft | 476 kts | 96° |
| 2026-05-05 05:46 | 40.92839 | 41.88220 | 36916 ft | 476 kts | 97° |
| 2026-05-05 05:47 | 40.92474 | 41.96985 | 36917 ft | 476 kts | 97° |
| 2026-05-05 05:47 | 40.92106 | 42.05671 | 36915 ft | 476 kts | 97° |
| 2026-05-05 05:48 | 40.91729 | 42.14437 | 36918 ft | 476 kts | 97° |
| 2026-05-05 05:48 | 40.91346 | 42.23155 | 36932 ft | 477 kts | 97° |
| 2026-05-05 05:49 | 40.90955 | 42.31917 | 36935 ft | 478 kts | 97° |
| 2026-05-05 05:49 | 40.90555 | 42.40722 | 36939 ft | 478 kts | 97° |
| 2026-05-05 05:50 | 40.90152 | 42.49462 | 36949 ft | 479 kts | 97° |
| 2026-05-05 05:50 | 40.89740 | 42.58259 | 36946 ft | 480 kts | 97° |
| 2026-05-05 05:51 | 40.89318 | 42.67096 | 36965 ft | 481 kts | 97° |
| 2026-05-05 05:51 | 40.88891 | 42.75906 | 36963 ft | 483 kts | 97° |
| 2026-05-05 05:52 | 40.88451 | 42.84839 | 36517 ft | 490 kts | 98° |
| 2026-05-05 05:52 | 40.88229 | 42.89288 | 36010 ft | 488 kts | 97° |
| 2026-05-05 05:52 | 40.88006 | 42.93753 | 35377 ft | 487 kts | 98° |
| 2026-05-05 05:53 | 40.87780 | 42.98239 | 34760 ft | 487 kts | 98° |
| 2026-05-05 05:53 | 40.87552 | 43.02723 | 34088 ft | 489 kts | 98° |
| 2026-05-05 05:53 | 40.87320 | 43.07219 | 33308 ft | 491 kts | 98° |
| 2026-05-05 05:53 | 40.87087 | 43.11727 | 32641 ft | 490 kts | 98° |
| 2026-05-05 05:54 | 40.86855 | 43.16201 | 32166 ft | 485 kts | 98° |
| 2026-05-05 05:54 | 40.86625 | 43.20624 | 31674 ft | 480 kts | 98° |
| 2026-05-05 05:54 | 40.86397 | 43.24957 | 31199 ft | 475 kts | 98° |
| 2026-05-05 05:54 | 40.86165 | 43.29316 | 30722 ft | 471 kts | 98° |
| 2026-05-05 05:55 | 40.85935 | 43.33615 | 30261 ft | 466 kts | 99° |
| 2026-05-05 05:55 | 40.85707 | 43.37817 | 29739 ft | 462 kts | 99° |
| 2026-05-05 05:55 | 40.85477 | 43.42033 | 29194 ft | 458 kts | 98° |
| 2026-05-05 05:55 | 40.85248 | 43.46208 | 28722 ft | 452 kts | 98° |
| 2026-05-05 05:56 | 40.85021 | 43.50329 | 28229 ft | 447 kts | 98° |
| 2026-05-05 05:56 | 40.84795 | 43.54398 | 27769 ft | 441 kts | 98° |
| 2026-05-05 05:56 | 40.84571 | 43.58424 | 27296 ft | 436 kts | 98° |
| 2026-05-05 05:56 | 40.84350 | 43.62370 | 26838 ft | 432 kts | 98° |
| 2026-05-05 05:57 | 40.84360 | 43.66348 | 26358 ft | 433 kts | 87° |
| 2026-05-05 05:57 | 40.84893 | 43.70256 | 25920 ft | 432 kts | 78° |
| 2026-05-05 05:57 | 40.85862 | 43.73959 | 25475 ft | 431 kts | 68° |
| 2026-05-05 05:57 | 40.87139 | 43.77528 | 25046 ft | 428 kts | 66° |
| 2026-05-05 05:58 | 40.88452 | 43.81064 | 24586 ft | 425 kts | 65° |
| 2026-05-05 05:58 | 40.89757 | 43.84560 | 24141 ft | 422 kts | 65° |
| 2026-05-05 05:58 | 40.91032 | 43.87996 | 23682 ft | 419 kts | 66° |
| 2026-05-05 05:58 | 40.92309 | 43.91473 | 23182 ft | 415 kts | 66° |
| 2026-05-05 05:59 | 40.93557 | 43.94900 | 22701 ft | 411 kts | 66° |
| 2026-05-05 05:59 | 40.94787 | 43.98297 | 22244 ft | 407 kts | 66° |
| 2026-05-05 05:59 | 40.95982 | 44.01613 | 21828 ft | 402 kts | 66° |
| 2026-05-05 05:59 | 40.97185 | 44.04958 | 21376 ft | 399 kts | 66° |
| 2026-05-05 06:00 | 40.98375 | 44.08272 | 20956 ft | 396 kts | 66° |
| 2026-05-05 06:00 | 40.99549 | 44.11546 | 20534 ft | 392 kts | 66° |
| 2026-05-05 06:00 | 41.00718 | 44.14809 | 20114 ft | 389 kts | 66° |
| 2026-05-05 06:00 | 41.01858 | 44.17994 | 19707 ft | 385 kts | 66° |
| 2026-05-05 06:01 | 41.03001 | 44.21194 | 19296 ft | 382 kts | 66° |
| 2026-05-05 06:01 | 41.04139 | 44.24381 | 18885 ft | 380 kts | 66° |
| 2026-05-05 06:01 | 41.05254 | 44.27507 | 18485 ft | 377 kts | 66° |
| 2026-05-05 06:01 | 41.06366 | 44.30629 | 18066 ft | 374 kts | 66° |
| 2026-05-05 06:02 | 41.07475 | 44.33745 | 17627 ft | 372 kts | 66° |
| 2026-05-05 06:02 | 41.08574 | 44.36835 | 17187 ft | 369 kts | 66° |
| 2026-05-05 06:02 | 41.09669 | 44.39918 | 16771 ft | 367 kts | 66° |
| 2026-05-05 06:02 | 41.10736 | 44.42928 | 16369 ft | 364 kts | 66° |
| 2026-05-05 06:03 | 41.11812 | 44.45963 | 15982 ft | 362 kts | 66° |
| 2026-05-05 06:03 | 41.12886 | 44.48994 | 15583 ft | 360 kts | 66° |
| 2026-05-05 06:03 | 41.13946 | 44.51994 | 15188 ft | 357 kts | 66° |
| 2026-05-05 06:03 | 41.14982 | 44.54925 | 14808 ft | 354 kts | 66° |
| 2026-05-05 06:04 | 41.16023 | 44.57876 | 14437 ft | 352 kts | 66° |
| 2026-05-05 06:04 | 41.17062 | 44.60822 | 14042 ft | 351 kts | 66° |
| 2026-05-05 06:04 | 41.18100 | 44.63771 | 13653 ft | 351 kts | 65° |
| 2026-05-05 06:04 | 41.19135 | 44.66714 | 13190 ft | 350 kts | 65° |
| 2026-05-05 06:05 | 41.19816 | 44.68651 | 12927 ft | 348 kts | 65° |
| 2026-05-05 06:05 | 41.21163 | 44.72486 | 12413 ft | 343 kts | 65° |
| 2026-05-05 06:05 | 41.22168 | 44.75352 | 12039 ft | 340 kts | 65° |
| 2026-05-05 06:05 | 41.22827 | 44.77234 | 11801 ft | 337 kts | 65° |
| 2026-05-05 06:06 | 41.23816 | 44.80057 | 11432 ft | 335 kts | 65° |
| 2026-05-05 06:06 | 41.25106 | 44.83745 | 11157 ft | 325 kts | 65° |
| 2026-05-05 06:06 | 41.25743 | 44.85569 | 11049 ft | 319 kts | 65° |
| 2026-05-05 06:06 | 41.26813 | 44.88054 | 10890 ft | 310 kts | 48° |
| 2026-05-05 06:07 | 41.28474 | 44.89827 | 10530 ft | 307 kts | 27° |
| 2026-05-05 06:07 | 41.30369 | 44.91126 | 10175 ft | 306 kts | 25° |
| 2026-05-05 06:07 | 41.32285 | 44.92394 | 9834 ft | 305 kts | 25° |
| 2026-05-05 06:07 | 41.34136 | 44.93631 | 9854 ft | 291 kts | 25° |
| 2026-05-05 06:08 | 41.35914 | 44.94836 | 9737 ft | 282 kts | 25° |
| 2026-05-05 06:08 | 41.37627 | 44.96005 | 9447 ft | 280 kts | 26° |
| 2026-05-05 06:08 | 41.39363 | 44.97192 | 9122 ft | 280 kts | 26° |
| 2026-05-05 06:08 | 41.41001 | 44.98574 | 8805 ft | 281 kts | 42° |
| 2026-05-05 06:09 | 41.42333 | 45.00475 | 8541 ft | 279 kts | 47° |
| 2026-05-05 06:09 | 41.43632 | 45.02373 | 8333 ft | 275 kts | 46° |
| 2026-05-05 06:09 | 41.44920 | 45.04214 | 8223 ft | 267 kts | 46° |
| 2026-05-05 06:09 | 41.46161 | 45.05973 | 8184 ft | 252 kts | 46° |
| 2026-05-05 06:10 | 41.47334 | 45.07631 | 8051 ft | 240 kts | 45° |
| 2026-05-05 06:10 | 41.48485 | 45.09254 | 7640 ft | 241 kts | 45° |
| 2026-05-05 06:10 | 41.49627 | 45.10863 | 7256 ft | 241 kts | 46° |
| 2026-05-05 06:10 | 41.50843 | 45.12406 | 6827 ft | 242 kts | 31° |
| 2026-05-05 06:11 | 41.52443 | 45.12900 | 6397 ft | 238 kts | 349° |
| 2026-05-05 06:11 | 41.53846 | 45.11914 | 5954 ft | 227 kts | 313° |
| 2026-05-05 06:11 | 41.54901 | 45.10367 | 5439 ft | 226 kts | 314° |
| 2026-05-05 06:11 | 41.56023 | 45.08902 | 4913 ft | 226 kts | 316° |
| 2026-05-05 06:12 | 41.57149 | 45.07472 | 4376 ft | 226 kts | 316° |
| 2026-05-05 06:12 | 41.58282 | 45.06039 | 4036 ft | 217 kts | 316° |
| 2026-05-05 06:12 | 41.59339 | 45.04702 | 3852 ft | 203 kts | 316° |
| 2026-05-05 06:12 | 41.60348 | 45.03427 | 3494 ft | 198 kts | 316° |
| 2026-05-05 06:13 | 41.61333 | 45.02181 | 3067 ft | 191 kts | 316° |
| 2026-05-05 06:13 | 41.62285 | 45.00976 | 2592 ft | 183 kts | 316° |
| 2026-05-05 06:13 | 41.63192 | 44.99839 | 2210 ft | 171 kts | 316° |
| 2026-05-05 06:13 | 41.64007 | 44.98811 | 2024 ft | 156 kts | 315° |
| 2026-05-05 06:14 | 41.64779 | 44.97827 | 1857 ft | 156 kts | 316° |
| 2026-05-05 06:14 | 41.65575 | 44.96815 | 1665 ft | 159 kts | 314° |
| 2026-05-05 06:14 | 41.66354 | 44.95816 | 1543 ft | 145 kts | 316° |
| 2026-05-05 06:14 | 41.66942 | 44.95070 | 1559 ft | 96 kts | 316° |
| 2026-05-05 06:15 | 41.67329 | 44.94586 | 1567 ft | 47 kts | 317° |
| 2026-05-05 06:15 | 41.67464 | 44.94432 | 1572 ft | 19 kts | 336° |
| 2026-05-05 06:15 | 41.67556 | 44.94522 | 1577 ft | 18 kts | 69° |
| 2026-05-05 06:15 | 41.67598 | 44.94681 | 1576 ft | 18 kts | 73° |
| 2026-05-05 06:16 | 41.67632 | 44.94836 | 1574 ft | 16 kts | 73° |
| 2026-05-05 06:16 | 41.67663 | 44.94979 | 1573 ft | 15 kts | 75° |
| 2026-05-05 06:16 | 41.67627 | 44.95099 | 1571 ft | 14 kts | 131° |
| 2026-05-05 06:16 | 41.67558 | 44.95193 | 1568 ft | 14 kts | 137° |
| 2026-05-05 06:17 | 41.67488 | 44.95287 | 1566 ft | 14 kts | 134° |
| 2026-05-05 06:17 | 41.67421 | 44.95383 | 1564 ft | 14 kts | 133° |